No particular awareness of the weather is required.    There are no Weather-warnings


Meteo18 Weather Cam more information Meteo18 Weather Cam


Thunder radar more information blitzortung!


Rain radar more information rain snow radar


Visit our other weather sites:

Template documentation
and downloads

And another site



Weather Underground History page Text

Daily Summary for February 24, 2018 Units:  Both    English   Metric
« Previous Day
Next Day »
Daily Weekly Monthly Yearly Custom
  High: Low: Average:
Temperature: TemperatureC °F /  -17.8 °C -2.0 °F /  -18.9 °C 0.8 °F /  -17.3 °C
Dew Point: DewpointC °F /  -17.8 °C -5.7 °F /  -20.9 °C -3.2 °F /  -19.6 °C
Humidity: Humidity % 64 % 74 %
Wind Speed: WindSpeedKMH mph /  0 km/h - 8.2 mph /  13.2 km/h
Wind Gust: WindSpeedGustKMH mph /  0 km/h - -
Wind:- - ENE
Pressure: PressurehPa in /  0 hPa 1011.7 in /  34256.2 hPa -
Precipitation: 0.0 in /  0 mm    
Historical Graphs
 
 
Tabular Data for February 24, 2018
Time Temperature Dew Point Pressure Wind Wind Speed Wind Gust Humidity Rainfall Rate (Hourly)
TemperatureC °F /  -17.8 °C DewpointC °F /  -17.8 °C PressurehPa in /  0 hPa Calm     Humidity % HourlyPrecipMM in /  0 mm
00:01 0.6 °F /  -17.4 °C -2.8 °F /  -19.3 °C 1012.4 in /  34279.9 hPa ENE 4.7 mph /  7.6 km/h 8.0 mph /  12.9 km/h 78 % 0.0 in /  0 mm
00:07 0.6 °F /  -17.4 °C -2.8 °F /  -19.3 °C 1012.1 in /  34269.7 hPa ENE 4.7 mph /  7.6 km/h 8.0 mph /  12.9 km/h 78 % 0.0 in /  0 mm
00:13 0.6 °F /  -17.4 °C -2.8 °F /  -19.3 °C 1012.1 in /  34269.7 hPa East 4.7 mph /  7.6 km/h 6.4 mph /  10.3 km/h 78 % 0.0 in /  0 mm
00:19 0.5 °F /  -17.5 °C -2.9 °F /  -19.4 °C 1012.1 in /  34269.7 hPa NE 1.4 mph /  2.3 km/h 11.3 mph /  18.2 km/h 78 % 0.0 in /  0 mm
00:25 0.5 °F /  -17.5 °C -2.9 °F /  -19.4 °C 1012.1 in /  34269.7 hPa ENE 3.2 mph /  5.1 km/h 4.8 mph /  7.7 km/h 78 % 0.0 in /  0 mm
00:31 0.4 °F /  -17.6 °C -3.0 °F /  -19.4 °C 1012.1 in /  34269.7 hPa ENE 1.4 mph /  2.3 km/h 9.7 mph /  15.6 km/h 78 % 0.0 in /  0 mm
00:37 0.4 °F /  -17.6 °C -3.0 °F /  -19.4 °C 1012.1 in /  34269.7 hPa NE 3.2 mph /  5.1 km/h 9.7 mph /  15.6 km/h 78 % 0.0 in /  0 mm
00:43 0.4 °F /  -17.6 °C -3.0 °F /  -19.4 °C 1012.1 in /  34269.7 hPa ENE 11.1 mph /  17.9 km/h 14.5 mph /  23.3 km/h 78 % 0.0 in /  0 mm
00:49 0.4 °F /  -17.6 °C -3.0 °F /  -19.4 °C 1011.7 in /  34256.2 hPa ENE 6.4 mph /  10.3 km/h 8.0 mph /  12.9 km/h 78 % 0.0 in /  0 mm
00:55 0.4 °F /  -17.6 °C -3.3 °F /  -19.6 °C 1011.7 in /  34256.2 hPa East 3.2 mph /  5.1 km/h 12.9 mph /  20.8 km/h 76 % 0.0 in /  0 mm
01:01 0.5 °F /  -17.5 °C -3.4 °F /  -19.7 °C 1011.7 in /  34256.2 hPa ENE 14.3 mph /  23 km/h 14.5 mph /  23.3 km/h 75 % 0.0 in /  0 mm
01:07 0.4 °F /  -17.6 °C -3.7 °F /  -19.8 °C 1011.7 in /  34256.2 hPa East 7.9 mph /  12.7 km/h 11.3 mph /  18.2 km/h 74 % 0.0 in /  0 mm
01:13 0.4 °F /  -17.6 °C -3.7 °F /  -19.8 °C 1011.7 in /  34256.2 hPa ENE 11.1 mph /  17.9 km/h 16.1 mph /  25.9 km/h 74 % 0.0 in /  0 mm
01:19 0.4 °F /  -17.6 °C -3.7 °F /  -19.8 °C 1011.7 in /  34256.2 hPa ENE 6.4 mph /  10.3 km/h 14.5 mph /  23.3 km/h 74 % 0.0 in /  0 mm
01:25 0.4 °F /  -17.6 °C -3.7 °F /  -19.8 °C 1012.1 in /  34269.7 hPa East 4.7 mph /  7.6 km/h 9.7 mph /  15.6 km/h 74 % 0.0 in /  0 mm
01:31 0.4 °F /  -17.6 °C -3.7 °F /  -19.8 °C 1012.1 in /  34269.7 hPa ENE 7.9 mph /  12.7 km/h 12.9 mph /  20.8 km/h 74 % 0.0 in /  0 mm
01:37 0.3 °F /  -17.6 °C -3.8 °F /  -19.9 °C 1012.1 in /  34269.7 hPa ENE 7.9 mph /  12.7 km/h 11.3 mph /  18.2 km/h 74 % 0.0 in /  0 mm
01:43 0.3 °F /  -17.6 °C -3.8 °F /  -19.9 °C 1012.1 in /  34269.7 hPa ENE 9.7 mph /  15.6 km/h 14.5 mph /  23.3 km/h 74 % 0.0 in /  0 mm
01:49 0.3 °F /  -17.6 °C -3.8 °F /  -19.9 °C 1012.1 in /  34269.7 hPa East 6.4 mph /  10.3 km/h 14.5 mph /  23.3 km/h 74 % 0.0 in /  0 mm
01:55 0.2 °F /  -17.7 °C -3.9 °F /  -19.9 °C 1012.1 in /  34269.7 hPa East 13.0 mph /  20.9 km/h 16.1 mph /  25.9 km/h 74 % 0.0 in /  0 mm
02:01 0.2 °F /  -17.7 °C -3.9 °F /  -19.9 °C 1012.1 in /  34269.7 hPa ENE 4.7 mph /  7.6 km/h 14.5 mph /  23.3 km/h 74 % 0.0 in /  0 mm
02:07 0.2 °F /  -17.7 °C -3.9 °F /  -19.9 °C 1012.4 in /  34279.9 hPa ENE 11.1 mph /  17.9 km/h 14.5 mph /  23.3 km/h 74 % 0.0 in /  0 mm
02:13 0.2 °F /  -17.7 °C -3.7 °F /  -19.8 °C 1012.1 in /  34269.7 hPa ENE 6.4 mph /  10.3 km/h 9.7 mph /  15.6 km/h 75 % 0.0 in /  0 mm
02:19 0.1 °F /  -17.7 °C -3.8 °F /  -19.9 °C 1012.1 in /  34269.7 hPa ENE 6.4 mph /  10.3 km/h 9.7 mph /  15.6 km/h 75 % 0.0 in /  0 mm
02:25 0.1 °F /  -17.7 °C -4.0 °F /  -20 °C 1012.1 in /  34269.7 hPa ENE 6.4 mph /  10.3 km/h 12.9 mph /  20.8 km/h 74 % 0.0 in /  0 mm
02:31 0.1 °F /  -17.7 °C -4.0 °F /  -20 °C 1012.1 in /  34269.7 hPa ENE 7.9 mph /  12.7 km/h 9.7 mph /  15.6 km/h 74 % 0.0 in /  0 mm
02:37 0.0 °F /  -17.8 °C -4.1 °F /  -20.1 °C 1012.1 in /  34269.7 hPa ENE 6.4 mph /  10.3 km/h 12.9 mph /  20.8 km/h 74 % 0.0 in /  0 mm
02:43 0.0 °F /  -17.8 °C -3.9 °F /  -19.9 °C 1011.7 in /  34256.2 hPa ENE 7.9 mph /  12.7 km/h 11.3 mph /  18.2 km/h 75 % 0.0 in /  0 mm
02:49 -0.1 °F /  -17.8 °C -3.8 °F /  -19.9 °C 1011.7 in /  34256.2 hPa East 1.4 mph /  2.3 km/h 8.0 mph /  12.9 km/h 76 % 0.0 in /  0 mm
02:55 -0.2 °F /  -17.9 °C -3.7 °F /  -19.8 °C 1012.1 in /  34269.7 hPa NE 3.2 mph /  5.1 km/h 6.4 mph /  10.3 km/h 77 % 0.0 in /  0 mm
03:01 -0.2 °F /  -17.9 °C -3.9 °F /  -19.9 °C 1012.1 in /  34269.7 hPa ENE 9.7 mph /  15.6 km/h 12.9 mph /  20.8 km/h 76 % 0.0 in /  0 mm
03:07 -0.2 °F /  -17.9 °C -4.1 °F /  -20.1 °C 1012.1 in /  34269.7 hPa ENE 13.0 mph /  20.9 km/h 16.1 mph /  25.9 km/h 75 % 0.0 in /  0 mm
03:13 -0.2 °F /  -17.9 °C -3.9 °F /  -19.9 °C 1012.1 in /  34269.7 hPa NE 3.2 mph /  5.1 km/h 14.5 mph /  23.3 km/h 76 % 0.0 in /  0 mm
03:19 -0.3 °F /  -17.9 °C -3.8 °F /  -19.9 °C 1012.1 in /  34269.7 hPa ENE 3.2 mph /  5.1 km/h 8.0 mph /  12.9 km/h 77 % 0.0 in /  0 mm
03:25 -0.3 °F /  -17.9 °C -3.8 °F /  -19.9 °C 1012.1 in /  34269.7 hPa ENE 7.9 mph /  12.7 km/h 8.0 mph /  12.9 km/h 77 % 0.0 in /  0 mm
03:31 -0.3 °F /  -17.9 °C -3.8 °F /  -19.9 °C 1012.1 in /  34269.7 hPa ENE 4.7 mph /  7.6 km/h 8.0 mph /  12.9 km/h 77 % 0.0 in /  0 mm
03:37 -0.4 °F /  -18 °C -3.9 °F /  -19.9 °C 1012.1 in /  34269.7 hPa ENE 4.7 mph /  7.6 km/h 8.0 mph /  12.9 km/h 77 % 0.0 in /  0 mm
03:43 -0.6 °F /  -18.1 °C -4.0 °F /  -20 °C 1012.1 in /  34269.7 hPa NE 1.4 mph /  2.3 km/h 3.2 mph /  5.1 km/h 78 % 0.0 in /  0 mm
03:49 -0.7 °F /  -18.2 °C -4.1 °F /  -20.1 °C 1012.1 in /  34269.7 hPa NE 3.2 mph /  5.1 km/h 6.4 mph /  10.3 km/h 78 % 0.0 in /  0 mm
03:55 -0.7 °F /  -18.2 °C -4.1 °F /  -20.1 °C 1012.1 in /  34269.7 hPa ENE 6.4 mph /  10.3 km/h 6.4 mph /  10.3 km/h 78 % 0.0 in /  0 mm
04:01 -0.8 °F /  -18.2 °C -4.2 °F /  -20.1 °C 1012.1 in /  34269.7 hPa ENE 1.4 mph /  2.3 km/h 4.8 mph /  7.7 km/h 78 % 0.0 in /  0 mm
04:07 -0.8 °F /  -18.2 °C -4.0 °F /  -20 °C 1012.1 in /  34269.7 hPa NE 1.4 mph /  2.3 km/h 4.8 mph /  7.7 km/h 79 % 0.0 in /  0 mm
04:13 -0.9 °F /  -18.3 °C -4.1 °F /  -20.1 °C 1012.1 in /  34269.7 hPa NE 6.4 mph /  10.3 km/h 8.0 mph /  12.9 km/h 79 % 0.0 in /  0 mm
04:19 -0.9 °F /  -18.3 °C -4.1 °F /  -20.1 °C 1012.1 in /  34269.7 hPa NE 3.2 mph /  5.1 km/h 8.0 mph /  12.9 km/h 79 % 0.0 in /  0 mm
04:25 -1.1 °F /  -18.4 °C -4.3 °F /  -20.2 °C 1011.7 in /  34256.2 hPa NE 6.4 mph /  10.3 km/h 8.0 mph /  12.9 km/h 79 % 0.0 in /  0 mm
04:31 -1.1 °F /  -18.4 °C -4.3 °F /  -20.2 °C 1012.1 in /  34269.7 hPa North 3.2 mph /  5.1 km/h 8.0 mph /  12.9 km/h 79 % 0.0 in /  0 mm
04:37 -1.2 °F /  -18.4 °C -4.2 °F /  -20.1 °C 1012.1 in /  34269.7 hPa NNE 1.4 mph /  2.3 km/h 3.2 mph /  5.1 km/h 80 % 0.0 in /  0 mm
04:43 -1.2 °F /  -18.4 °C -4.2 °F /  -20.1 °C 1012.1 in /  34269.7 hPa NE 3.2 mph /  5.1 km/h 4.8 mph /  7.7 km/h 80 % 0.0 in /  0 mm
04:49 -1.3 °F /  -18.5 °C -4.3 °F /  -20.2 °C 1012.1 in /  34269.7 hPa NNE 4.7 mph /  7.6 km/h 6.4 mph /  10.3 km/h 80 % 0.0 in /  0 mm
04:55 -1.2 °F /  -18.4 °C -4.2 °F /  -20.1 °C 1012.1 in /  34269.7 hPa NE 4.7 mph /  7.6 km/h 9.7 mph /  15.6 km/h 80 % 0.0 in /  0 mm
05:01 -1.3 °F /  -18.5 °C -4.3 °F /  -20.2 °C 1012.1 in /  34269.7 hPa NE 7.9 mph /  12.7 km/h 8.0 mph /  12.9 km/h 80 % 0.0 in /  0 mm
05:07 -1.3 °F /  -18.5 °C -4.3 °F /  -20.2 °C 1012.1 in /  34269.7 hPa NE 4.7 mph /  7.6 km/h 8.0 mph /  12.9 km/h 80 % 0.0 in /  0 mm
05:13 -1.3 °F /  -18.5 °C -4.3 °F /  -20.2 °C 1012.1 in /  34269.7 hPa NE 4.7 mph /  7.6 km/h 8.0 mph /  12.9 km/h 80 % 0.0 in /  0 mm
05:19 -1.3 °F /  -18.5 °C -4.3 °F /  -20.2 °C 1011.7 in /  34256.2 hPa NE 6.4 mph /  10.3 km/h 9.7 mph /  15.6 km/h 80 % 0.0 in /  0 mm
05:25 -1.4 °F /  -18.6 °C -4.4 °F /  -20.2 °C 1011.7 in /  34256.2 hPa NE 4.7 mph /  7.6 km/h 6.4 mph /  10.3 km/h 80 % 0.0 in /  0 mm
05:31 -1.4 °F /  -18.6 °C -4.4 °F /  -20.2 °C 1011.7 in /  34256.2 hPa NNE 6.4 mph /  10.3 km/h 6.4 mph /  10.3 km/h 80 % 0.0 in /  0 mm
05:37 -1.4 °F /  -18.6 °C -4.4 °F /  -20.2 °C 1011.7 in /  34256.2 hPa NNE 4.7 mph /  7.6 km/h 6.4 mph /  10.3 km/h 80 % 0.0 in /  0 mm
05:43 -1.5 °F /  -18.6 °C -4.3 °F /  -20.2 °C 1011.7 in /  34256.2 hPa NW 1.4 mph /  2.3 km/h 8.0 mph /  12.9 km/h 81 % 0.0 in /  0 mm
05:49 -1.6 °F /  -18.7 °C -4.3 °F /  -20.2 °C 1011.7 in /  34256.2 hPa NNE 4.7 mph /  7.6 km/h 11.3 mph /  18.2 km/h 82 % 0.0 in /  0 mm
05:56 -1.4 °F /  -18.6 °C -4.2 °F /  -20.1 °C 1011.7 in /  34256.2 hPa NNE 6.4 mph /  10.3 km/h 9.7 mph /  15.6 km/h 81 % 0.0 in /  0 mm
06:02 -1.4 °F /  -18.6 °C -4.2 °F /  -20.1 °C 1011.7 in /  34256.2 hPa NNE 7.9 mph /  12.7 km/h 12.9 mph /  20.8 km/h 81 % 0.0 in /  0 mm
06:08 -1.5 °F /  -18.6 °C -4.3 °F /  -20.2 °C 1011.7 in /  34256.2 hPa NE 4.7 mph /  7.6 km/h 9.7 mph /  15.6 km/h 81 % 0.0 in /  0 mm
06:14 -1.3 °F /  -18.5 °C -4.1 °F /  -20.1 °C 1011.7 in /  34256.2 hPa NE 9.7 mph /  15.6 km/h 14.5 mph /  23.3 km/h 81 % 0.0 in /  0 mm
06:20 -1.2 °F /  -18.4 °C -4.2 °F /  -20.1 °C 1011.7 in /  34256.2 hPa NE 9.7 mph /  15.6 km/h 14.5 mph /  23.3 km/h 80 % 0.0 in /  0 mm
06:26 -1.2 °F /  -18.4 °C -4.2 °F /  -20.1 °C 1011.7 in /  34256.2 hPa NE 6.4 mph /  10.3 km/h 14.5 mph /  23.3 km/h 80 % 0.0 in /  0 mm
06:32 -1.2 °F /  -18.4 °C -4.2 °F /  -20.1 °C 1011.7 in /  34256.2 hPa NNE 16.3 mph /  26.2 km/h 17.7 mph /  28.5 km/h 80 % 0.0 in /  0 mm
06:38 -1.2 °F /  -18.4 °C -4.2 °F /  -20.1 °C 1011.7 in /  34256.2 hPa NE 14.3 mph /  23 km/h 16.1 mph /  25.9 km/h 80 % 0.0 in /  0 mm
06:44 -1.3 °F /  -18.5 °C -4.3 °F /  -20.2 °C 1012.1 in /  34269.7 hPa NNE 6.4 mph /  10.3 km/h 11.3 mph /  18.2 km/h 80 % 0.0 in /  0 mm
06:50 -1.4 °F /  -18.6 °C -4.2 °F /  -20.1 °C 1012.1 in /  34269.7 hPa NNE 7.9 mph /  12.7 km/h 12.9 mph /  20.8 km/h 81 % 0.0 in /  0 mm
06:56 -1.4 °F /  -18.6 °C -4.2 °F /  -20.1 °C 1012.1 in /  34269.7 hPa Calm   12.9 mph /  20.8 km/h 81 % 0.0 in /  0 mm
07:02 -1.6 °F /  -18.7 °C -4.3 °F /  -20.2 °C 1012.1 in /  34269.7 hPa NE 13.0 mph /  20.9 km/h 13.0 mph /  20.9 km/h 82 % 0.0 in /  0 mm
07:08 -1.6 °F /  -18.7 °C -4.3 °F /  -20.2 °C 1012.1 in /  34269.7 hPa North 6.4 mph /  10.3 km/h 11.3 mph /  18.2 km/h 82 % 0.0 in /  0 mm
07:14 -1.7 °F /  -18.7 °C -4.4 °F /  -20.2 °C 1012.1 in /  34269.7 hPa NW 6.4 mph /  10.3 km/h 9.7 mph /  15.6 km/h 82 % 0.0 in /  0 mm
07:20 -1.8 °F /  -18.8 °C -4.3 °F /  -20.2 °C 1012.1 in /  34269.7 hPa NNE 3.2 mph /  5.1 km/h 9.7 mph /  15.6 km/h 83 % 0.0 in /  0 mm
07:26 -1.8 °F /  -18.8 °C -4.3 °F /  -20.2 °C 1012.1 in /  34269.7 hPa NE 4.7 mph /  7.6 km/h 9.7 mph /  15.6 km/h 83 % 0.0 in /  0 mm
07:32 -1.8 °F /  -18.8 °C -4.3 °F /  -20.2 °C 1012.1 in /  34269.7 hPa NNE 9.7 mph /  15.6 km/h 16.1 mph /  25.9 km/h 83 % 0.0 in /  0 mm
07:38 -1.9 °F /  -18.8 °C -4.4 °F /  -20.2 °C 1012.1 in /  34269.7 hPa NNE 1.4 mph /  2.3 km/h 8.0 mph /  12.9 km/h 83 % 0.0 in /  0 mm
07:44 -1.9 °F /  -18.8 °C -4.4 °F /  -20.2 °C 1012.1 in /  34269.7 hPa NNW 1.4 mph /  2.3 km/h 6.4 mph /  10.3 km/h 83 % 0.0 in /  0 mm
07:50 -2.0 °F /  -18.9 °C -4.3 °F /  -20.2 °C 1012.1 in /  34269.7 hPa NE 1.4 mph /  2.3 km/h 9.7 mph /  15.6 km/h 84 % 0.0 in /  0 mm
07:56 -1.9 °F /  -18.8 °C -4.2 °F /  -20.1 °C 1012.4 in /  34279.9 hPa NE 7.9 mph /  12.7 km/h 11.3 mph /  18.2 km/h 84 % 0.0 in /  0 mm
08:02 -2.0 °F /  -18.9 °C -4.3 °F /  -20.2 °C 1012.4 in /  34279.9 hPa NNE 3.2 mph /  5.1 km/h 11.3 mph /  18.2 km/h 84 % 0.0 in /  0 mm
08:08 -2.0 °F /  -18.9 °C -4.3 °F /  -20.2 °C 1012.1 in /  34269.7 hPa NE 7.9 mph /  12.7 km/h 12.9 mph /  20.8 km/h 84 % 0.0 in /  0 mm
08:14 -1.9 °F /  -18.8 °C -4.2 °F /  -20.1 °C 1012.4 in /  34279.9 hPa NE 6.4 mph /  10.3 km/h 8.0 mph /  12.9 km/h 84 % 0.0 in /  0 mm
08:20 -1.9 °F /  -18.8 °C -4.2 °F /  -20.1 °C 1012.4 in /  34279.9 hPa NNE 4.7 mph /  7.6 km/h 9.7 mph /  15.6 km/h 84 % 0.0 in /  0 mm
08:26 -1.8 °F /  -18.8 °C -4.1 °F /  -20.1 °C 1012.4 in /  34279.9 hPa NNE 9.7 mph /  15.6 km/h 11.3 mph /  18.2 km/h 84 % 0.0 in /  0 mm
08:32 -1.8 °F /  -18.8 °C -4.3 °F /  -20.2 °C 1012.8 in /  34293.4 hPa NNE 7.9 mph /  12.7 km/h 16.1 mph /  25.9 km/h 83 % 0.0 in /  0 mm
08:38 -1.7 °F /  -18.7 °C -4.2 °F /  -20.1 °C 1012.8 in /  34293.4 hPa NE 14.3 mph /  23 km/h 16.1 mph /  25.9 km/h 83 % 0.0 in /  0 mm
08:44 -1.6 °F /  -18.7 °C -4.3 °F /  -20.2 °C 1012.8 in /  34293.4 hPa NE 7.9 mph /  12.7 km/h 17.7 mph /  28.5 km/h 82 % 0.0 in /  0 mm
08:50 -1.5 °F /  -18.6 °C -4.2 °F /  -20.1 °C 1012.8 in /  34293.4 hPa NE 16.3 mph /  26.2 km/h 19.3 mph /  31.1 km/h 82 % 0.0 in /  0 mm
08:56 -1.4 °F /  -18.6 °C -4.2 °F /  -20.1 °C 1012.8 in /  34293.4 hPa North 3.2 mph /  5.1 km/h 17.7 mph /  28.5 km/h 81 % 0.0 in /  0 mm
09:02 -1.4 °F /  -18.6 °C -4.1 °F /  -20.1 °C 1012.8 in /  34293.4 hPa NNE 3.2 mph /  5.1 km/h 12.9 mph /  20.8 km/h 82 % 0.0 in /  0 mm
09:08 -1.4 °F /  -18.6 °C -4.2 °F /  -20.1 °C 1012.8 in /  34293.4 hPa NE 6.4 mph /  10.3 km/h 16.1 mph /  25.9 km/h 81 % 0.0 in /  0 mm
09:14 -1.3 °F /  -18.5 °C -4.3 °F /  -20.2 °C 1012.8 in /  34293.4 hPa NNE 14.3 mph /  23 km/h 16.1 mph /  25.9 km/h 80 % 0.0 in /  0 mm
09:20 -1.3 °F /  -18.5 °C -4.3 °F /  -20.2 °C 1012.8 in /  34293.4 hPa NNE 9.7 mph /  15.6 km/h 20.9 mph /  33.6 km/h 80 % 0.0 in /  0 mm
09:26 -1.2 °F /  -18.4 °C -4.2 °F /  -20.1 °C 1012.4 in /  34279.9 hPa NE 11.1 mph /  17.9 km/h 20.9 mph /  33.6 km/h 80 % 0.0 in /  0 mm
09:32 -1.1 °F /  -18.4 °C -4.3 °F /  -20.2 °C 1012.8 in /  34293.4 hPa NE 16.3 mph /  26.2 km/h 25.7 mph /  41.4 km/h 79 % 0.0 in /  0 mm
09:38 -1.1 °F /  -18.4 °C -4.3 °F /  -20.2 °C 1012.8 in /  34293.4 hPa NE 14.3 mph /  23 km/h 17.7 mph /  28.5 km/h 79 % 0.0 in /  0 mm
09:44 -0.9 °F /  -18.3 °C -4.1 °F /  -20.1 °C 1012.8 in /  34293.4 hPa NE 9.7 mph /  15.6 km/h 22.5 mph /  36.2 km/h 79 % 0.0 in /  0 mm
09:50 -0.8 °F /  -18.2 °C -4.2 °F /  -20.1 °C 1012.4 in /  34279.9 hPa NNE 16.3 mph /  26.2 km/h 20.9 mph /  33.6 km/h 78 % 0.0 in /  0 mm
09:56 -0.8 °F /  -18.2 °C -4.2 °F /  -20.1 °C 1012.4 in /  34279.9 hPa ENE 25.9 mph /  41.7 km/h 25.9 mph /  41.7 km/h 78 % 0.0 in /  0 mm
09:58 -0.8 °F /  -18.2 °C -4.2 °F /  -20.1 °C 1012.4 in /  34279.9 hPa NE 14.3 mph /  23 km/h 20.9 mph /  33.6 km/h 78 % 0.0 in /  0 mm
10:02 -0.7 °F /  -18.2 °C -4.2 °F /  -20.1 °C 1012.4 in /  34279.9 hPa NNE 11.1 mph /  17.9 km/h 24.1 mph /  38.8 km/h 77 % 0.0 in /  0 mm
10:08 -0.7 °F /  -18.2 °C -4.2 °F /  -20.1 °C 1012.4 in /  34279.9 hPa NE 11.1 mph /  17.9 km/h 27.4 mph /  44.1 km/h 77 % 0.0 in /  0 mm
10:14 -0.5 °F /  -18.1 °C -4.0 °F /  -20 °C 1012.4 in /  34279.9 hPa NNE 14.3 mph /  23 km/h 20.9 mph /  33.6 km/h 77 % 0.0 in /  0 mm
10:20 -0.3 °F /  -17.9 °C -3.8 °F /  -19.9 °C 1012.4 in /  34279.9 hPa NE 13.0 mph /  20.9 km/h 17.7 mph /  28.5 km/h 77 % 0.0 in /  0 mm
10:26 -0.3 °F /  -17.9 °C -4.0 °F /  -20 °C 1012.4 in /  34279.9 hPa NE 7.9 mph /  12.7 km/h 20.9 mph /  33.6 km/h 76 % 0.0 in /  0 mm
10:32 -0.1 °F /  -17.8 °C -3.8 °F /  -19.9 °C 1012.4 in /  34279.9 hPa East 6.4 mph /  10.3 km/h 17.7 mph /  28.5 km/h 76 % 0.0 in /  0 mm
10:38 0.0 °F /  -17.8 °C -3.7 °F /  -19.8 °C 1012.4 in /  34279.9 hPa NE 7.9 mph /  12.7 km/h 17.7 mph /  28.5 km/h 76 % 0.0 in /  0 mm
10:44 0.2 °F /  -17.7 °C -3.5 °F /  -19.7 °C 1012.4 in /  34279.9 hPa NE 13.0 mph /  20.9 km/h 14.5 mph /  23.3 km/h 76 % 0.0 in /  0 mm
10:50 0.2 °F /  -17.7 °C -3.5 °F /  -19.7 °C 1012.4 in /  34279.9 hPa NE 14.3 mph /  23 km/h 20.9 mph /  33.6 km/h 76 % 0.0 in /  0 mm
10:56 0.3 °F /  -17.6 °C -3.4 °F /  -19.7 °C 1012.4 in /  34279.9 hPa ENE 6.4 mph /  10.3 km/h 20.9 mph /  33.6 km/h 76 % 0.0 in /  0 mm
11:02 0.3 °F /  -17.6 °C -3.6 °F /  -19.8 °C 1012.4 in /  34279.9 hPa ENE 9.7 mph /  15.6 km/h 22.5 mph /  36.2 km/h 75 % 0.0 in /  0 mm
11:08 0.4 °F /  -17.6 °C -3.5 °F /  -19.7 °C 1012.4 in /  34279.9 hPa NE 16.3 mph /  26.2 km/h 24.1 mph /  38.8 km/h 75 % 0.0 in /  0 mm
11:14 0.6 °F /  -17.4 °C -3.3 °F /  -19.6 °C 1012.4 in /  34279.9 hPa NE 7.9 mph /  12.7 km/h 17.7 mph /  28.5 km/h 75 % 0.0 in /  0 mm
11:20 0.7 °F /  -17.4 °C -3.2 °F /  -19.6 °C 1012.4 in /  34279.9 hPa NE 16.3 mph /  26.2 km/h 20.9 mph /  33.6 km/h 75 % 0.0 in /  0 mm
11:26 0.8 °F /  -17.3 °C -3.1 °F /  -19.5 °C 1012.4 in /  34279.9 hPa NE 14.3 mph /  23 km/h 17.7 mph /  28.5 km/h 75 % 0.0 in /  0 mm
11:32 0.7 °F /  -17.4 °C -3.6 °F /  -19.8 °C 1012.4 in /  34279.9 hPa NE 11.1 mph /  17.9 km/h 19.3 mph /  31.1 km/h 73 % 0.0 in /  0 mm
11:38 0.9 °F /  -17.3 °C -3.0 °F /  -19.4 °C 1012.8 in /  34293.4 hPa ENE 11.1 mph /  17.9 km/h 11.3 mph /  18.2 km/h 75 % 0.0 in /  0 mm
11:44 0.8 °F /  -17.3 °C -3.3 °F /  -19.6 °C 1012.8 in /  34293.4 hPa ENE 1.4 mph /  2.3 km/h 11.3 mph /  18.2 km/h 74 % 0.0 in /  0 mm
11:50 1.3 °F /  -17.1 °C -2.8 °F /  -19.3 °C 1012.8 in /  34293.4 hPa ENE 3.2 mph /  5.1 km/h 11.3 mph /  18.2 km/h 74 % 0.0 in /  0 mm
11:56 1.4 °F /  -17 °C -2.9 °F /  -19.4 °C 1012.8 in /  34293.4 hPa ENE 4.7 mph /  7.6 km/h 12.9 mph /  20.8 km/h 73 % 0.0 in /  0 mm
12:02 1.3 °F /  -17.1 °C -2.8 °F /  -19.3 °C 1012.8 in /  34293.4 hPa NE 1.4 mph /  2.3 km/h 20.9 mph /  33.6 km/h 74 % 0.0 in /  0 mm
12:08 1.5 °F /  -16.9 °C -2.8 °F /  -19.3 °C 1012.8 in /  34293.4 hPa ENE 4.7 mph /  7.6 km/h 11.3 mph /  18.2 km/h 73 % 0.0 in /  0 mm
12:14 1.6 °F /  -16.9 °C -2.7 °F /  -19.3 °C 1012.8 in /  34293.4 hPa ENE 7.9 mph /  12.7 km/h 14.5 mph /  23.3 km/h 73 % 0.0 in /  0 mm
12:20 1.8 °F /  -16.8 °C -2.7 °F /  -19.3 °C 1012.8 in /  34293.4 hPa NE 3.2 mph /  5.1 km/h 9.7 mph /  15.6 km/h 72 % 0.0 in /  0 mm
12:26 2.1 °F /  -16.6 °C -2.0 °F /  -18.9 °C 1012.8 in /  34293.4 hPa NNE 4.7 mph /  7.6 km/h 11.3 mph /  18.2 km/h 74 % 0.0 in /  0 mm
12:32 2.2 °F /  -16.6 °C -2.1 °F /  -18.9 °C 1012.8 in /  34293.4 hPa NE 3.2 mph /  5.1 km/h 11.3 mph /  18.2 km/h 73 % 0.0 in /  0 mm
12:38 2.6 °F /  -16.3 °C -1.9 °F /  -18.8 °C 1012.8 in /  34293.4 hPa ENE 9.7 mph /  15.6 km/h 16.1 mph /  25.9 km/h 72 % 0.0 in /  0 mm
12:44 2.6 °F /  -16.3 °C -2.3 °F /  -19.1 °C 1012.8 in /  34293.4 hPa ESE 6.4 mph /  10.3 km/h 16.1 mph /  25.9 km/h 70 % 0.0 in /  0 mm
12:50 2.6 °F /  -16.3 °C -2.1 °F /  -18.9 °C 1012.8 in /  34293.4 hPa ENE 16.3 mph /  26.2 km/h 17.7 mph /  28.5 km/h 71 % 0.0 in /  0 mm
12:56 2.4 °F /  -16.4 °C -2.5 °F /  -19.2 °C 1012.8 in /  34293.4 hPa East 9.7 mph /  15.6 km/h 17.7 mph /  28.5 km/h 70 % 0.0 in /  0 mm
13:02 2.7 °F /  -16.3 °C -2.2 °F /  -19 °C 1012.8 in /  34293.4 hPa NNE 7.9 mph /  12.7 km/h 24.1 mph /  38.8 km/h 70 % 0.0 in /  0 mm
13:08 2.7 °F /  -16.3 °C -2.0 °F /  -18.9 °C 1012.8 in /  34293.4 hPa ENE 9.7 mph /  15.6 km/h 20.9 mph /  33.6 km/h 71 % 0.0 in /  0 mm
13:14 2.8 °F /  -16.2 °C -2.3 °F /  -19.1 °C 1012.4 in /  34279.9 hPa NE 4.7 mph /  7.6 km/h 17.7 mph /  28.5 km/h 69 % 0.0 in /  0 mm
13:20 2.7 °F /  -16.3 °C -2.2 °F /  -19 °C 1012.4 in /  34279.9 hPa NE 7.9 mph /  12.7 km/h 12.9 mph /  20.8 km/h 70 % 0.0 in /  0 mm
13:26 3.0 °F /  -16.1 °C -1.7 °F /  -18.7 °C 1012.4 in /  34279.9 hPa NE 6.4 mph /  10.3 km/h 14.5 mph /  23.3 km/h 71 % 0.0 in /  0 mm
13:32 3.1 °F /  -16.1 °C -2.0 °F /  -18.9 °C 1012.4 in /  34279.9 hPa ENE 16.3 mph /  26.2 km/h 19.3 mph /  31.1 km/h 69 % 0.0 in /  0 mm
13:38 2.7 °F /  -16.3 °C -2.2 °F /  -19 °C 1012.4 in /  34279.9 hPa NNE 7.9 mph /  12.7 km/h 17.7 mph /  28.5 km/h 70 % 0.0 in /  0 mm
13:44 2.9 °F /  -16.2 °C -2.0 °F /  -18.9 °C 1012.4 in /  34279.9 hPa NNE 16.3 mph /  26.2 km/h 16.3 mph /  26.2 km/h 70 % 0.0 in /  0 mm
13:50 3.1 °F /  -16.1 °C -2.0 °F /  -18.9 °C 1012.4 in /  34279.9 hPa NE 19.5 mph /  31.4 km/h 24.1 mph /  38.8 km/h 69 % 0.0 in /  0 mm
13:56 3.3 °F /  -15.9 °C -1.8 °F /  -18.8 °C 1012.4 in /  34279.9 hPa NE 16.3 mph /  26.2 km/h 27.4 mph /  44.1 km/h 69 % 0.0 in /  0 mm
14:02 3.2 °F /  -16 °C -2.3 °F /  -19.1 °C 1012.4 in /  34279.9 hPa East 9.7 mph /  15.6 km/h 16.1 mph /  25.9 km/h 67 % 0.0 in /  0 mm
14:08 3.2 °F /  -16 °C -2.1 °F /  -18.9 °C 1012.4 in /  34279.9 hPa NE 17.7 mph /  28.5 km/h 20.9 mph /  33.6 km/h 68 % 0.0 in /  0 mm
14:14 3.2 °F /  -16 °C -2.1 °F /  -18.9 °C 1012.4 in /  34279.9 hPa East 6.4 mph /  10.3 km/h 16.1 mph /  25.9 km/h 68 % 0.0 in /  0 mm
14:20 3.3 °F /  -15.9 °C -1.8 °F /  -18.8 °C 1012.4 in /  34279.9 hPa NE 16.3 mph /  26.2 km/h 19.3 mph /  31.1 km/h 69 % 0.0 in /  0 mm
14:26 3.2 °F /  -16 °C -2.1 °F /  -18.9 °C 1012.4 in /  34279.9 hPa NNE 6.4 mph /  10.3 km/h 20.9 mph /  33.6 km/h 68 % 0.0 in /  0 mm
14:32 3.1 °F /  -16.1 °C -1.8 °F /  -18.8 °C 1012.4 in /  34279.9 hPa NNE 6.4 mph /  10.3 km/h 25.7 mph /  41.4 km/h 70 % 0.0 in /  0 mm
14:38 3.2 °F /  -16 °C -1.6 °F /  -18.7 °C 1012.4 in /  34279.9 hPa NNE 4.7 mph /  7.6 km/h 12.9 mph /  20.8 km/h 71 % 0.0 in /  0 mm
14:44 3.4 °F /  -15.9 °C -1.7 °F /  -18.7 °C 1012.4 in /  34279.9 hPa NNE 7.9 mph /  12.7 km/h 17.7 mph /  28.5 km/h 69 % 0.0 in /  0 mm
14:50 3.4 °F /  -15.9 °C -1.6 °F /  -18.7 °C 1012.4 in /  34279.9 hPa NE 4.7 mph /  7.6 km/h 14.5 mph /  23.3 km/h 70 % 0.0 in /  0 mm
14:56 3.3 °F /  -15.9 °C -1.8 °F /  -18.8 °C 1012.4 in /  34279.9 hPa NE 9.7 mph /  15.6 km/h 27.4 mph /  44.1 km/h 69 % 0.0 in /  0 mm
15:02 3.2 °F /  -16 °C -1.7 °F /  -18.7 °C 1012.4 in /  34279.9 hPa NNE 9.7 mph /  15.6 km/h 12.9 mph /  20.8 km/h 70 % 0.0 in /  0 mm
15:08 3.4 °F /  -15.9 °C -1.7 °F /  -18.7 °C 1012.4 in /  34279.9 hPa NE 13.0 mph /  20.9 km/h 20.9 mph /  33.6 km/h 69 % 0.0 in /  0 mm
15:14 3.2 °F /  -16 °C -2.3 °F /  -19.1 °C 1012.4 in /  34279.9 hPa NNE 14.3 mph /  23 km/h 25.7 mph /  41.4 km/h 67 % 0.0 in /  0 mm
15:20 3.2 °F /  -16 °C -1.9 °F /  -18.8 °C 1012.4 in /  34279.9 hPa NE 4.7 mph /  7.6 km/h 17.7 mph /  28.5 km/h 69 % 0.0 in /  0 mm
15:26 3.4 °F /  -15.9 °C -1.6 °F /  -18.7 °C 1012.4 in /  34279.9 hPa NE 25.9 mph /  41.7 km/h 25.9 mph /  41.7 km/h 70 % 0.0 in /  0 mm
15:32 3.4 °F /  -15.9 °C -1.7 °F /  -18.7 °C 1012.4 in /  34279.9 hPa NNW 14.3 mph /  23 km/h 27.4 mph /  44.1 km/h 69 % 0.0 in /  0 mm
15:38 3.3 °F /  -15.9 °C -2.0 °F /  -18.9 °C 1012.4 in /  34279.9 hPa NNE 11.1 mph /  17.9 km/h 19.3 mph /  31.1 km/h 68 % 0.0 in /  0 mm
15:44 3.4 °F /  -15.9 °C -1.9 °F /  -18.8 °C 1012.4 in /  34279.9 hPa NNE 17.7 mph /  28.5 km/h 27.4 mph /  44.1 km/h 68 % 0.0 in /  0 mm
15:50 3.5 °F /  -15.8 °C -1.8 °F /  -18.8 °C 1012.4 in /  34279.9 hPa NE 20.9 mph /  33.6 km/h 22.5 mph /  36.2 km/h 68 % 0.0 in /  0 mm
15:56 3.4 °F /  -15.9 °C -2.1 °F /  -18.9 °C 1012.4 in /  34279.9 hPa NE 11.1 mph /  17.9 km/h 24.1 mph /  38.8 km/h 67 % 0.0 in /  0 mm
16:02 3.5 °F /  -15.8 °C -1.8 °F /  -18.8 °C 1012.4 in /  34279.9 hPa NE 6.4 mph /  10.3 km/h 19.3 mph /  31.1 km/h 68 % 0.0 in /  0 mm
16:08 3.8 °F /  -15.7 °C -1.8 °F /  -18.8 °C 1012.8 in /  34293.4 hPa NNE 9.7 mph /  15.6 km/h 22.5 mph /  36.2 km/h 67 % 0.0 in /  0 mm
16:14 3.7 °F /  -15.7 °C -1.9 °F /  -18.8 °C 1012.8 in /  34293.4 hPa NE 3.2 mph /  5.1 km/h 19.3 mph /  31.1 km/h 67 % 0.0 in /  0 mm
16:20 3.6 °F /  -15.8 °C -2.0 °F /  -18.9 °C 1012.8 in /  34293.4 hPa NE 22.7 mph /  36.5 km/h 24.1 mph /  38.8 km/h 67 % 0.0 in /  0 mm
16:26 3.5 °F /  -15.8 °C -1.8 °F /  -18.8 °C 1012.8 in /  34293.4 hPa ENE 4.7 mph /  7.6 km/h 17.7 mph /  28.5 km/h 68 % 0.0 in /  0 mm
16:32 3.6 °F /  -15.8 °C -2.0 °F /  -18.9 °C 1012.8 in /  34293.4 hPa East 14.3 mph /  23 km/h 20.9 mph /  33.6 km/h 67 % 0.0 in /  0 mm
16:38 3.5 °F /  -15.8 °C -1.8 °F /  -18.8 °C 1012.8 in /  34293.4 hPa NE 9.7 mph /  15.6 km/h 16.1 mph /  25.9 km/h 68 % 0.0 in /  0 mm
16:44 3.4 °F /  -15.9 °C -2.1 °F /  -18.9 °C 1012.8 in /  34293.4 hPa NNE 17.7 mph /  28.5 km/h 22.5 mph /  36.2 km/h 67 % 0.0 in /  0 mm
16:50 3.4 °F /  -15.9 °C -2.1 °F /  -18.9 °C 1012.8 in /  34293.4 hPa NE 6.4 mph /  10.3 km/h 14.5 mph /  23.3 km/h 67 % 0.0 in /  0 mm
16:56 3.4 °F /  -15.9 °C -1.9 °F /  -18.8 °C 1012.8 in /  34293.4 hPa NNE 13.0 mph /  20.9 km/h 24.1 mph /  38.8 km/h 68 % 0.0 in /  0 mm
17:02 3.4 °F /  -15.9 °C -2.1 °F /  -18.9 °C 1012.8 in /  34293.4 hPa NE 16.3 mph /  26.2 km/h 24.1 mph /  38.8 km/h 67 % 0.0 in /  0 mm
17:08 3.4 °F /  -15.9 °C -1.9 °F /  -18.8 °C 1012.8 in /  34293.4 hPa North 6.4 mph /  10.3 km/h 22.5 mph /  36.2 km/h 68 % 0.0 in /  0 mm
17:14 3.3 °F /  -15.9 °C -2.0 °F /  -18.9 °C 1012.8 in /  34293.4 hPa NNE 13.0 mph /  20.9 km/h 22.5 mph /  36.2 km/h 68 % 0.0 in /  0 mm
17:20 3.3 °F /  -15.9 °C -2.2 °F /  -19 °C 1013.1 in /  34303.6 hPa NE 6.4 mph /  10.3 km/h 22.5 mph /  36.2 km/h 67 % 0.0 in /  0 mm
17:27 3.3 °F /  -15.9 °C -2.0 °F /  -18.9 °C 1013.1 in /  34303.6 hPa NNE 16.3 mph /  26.2 km/h 19.3 mph /  31.1 km/h 68 % 0.0 in /  0 mm
17:33 3.3 °F /  -15.9 °C -2.0 °F /  -18.9 °C 1013.1 in /  34303.6 hPa NE 14.3 mph /  23 km/h 16.1 mph /  25.9 km/h 68 % 0.0 in /  0 mm
17:39 3.3 °F /  -15.9 °C -2.0 °F /  -18.9 °C 1013.1 in /  34303.6 hPa NNE 11.1 mph /  17.9 km/h 22.5 mph /  36.2 km/h 68 % 0.0 in /  0 mm
17:45 3.3 °F /  -15.9 °C -1.8 °F /  -18.8 °C 1013.1 in /  34303.6 hPa NNE 6.4 mph /  10.3 km/h 14.5 mph /  23.3 km/h 69 % 0.0 in /  0 mm
17:51 3.3 °F /  -15.9 °C -2.0 °F /  -18.9 °C 1013.4 in /  34313.7 hPa NE 9.7 mph /  15.6 km/h 17.7 mph /  28.5 km/h 68 % 0.0 in /  0 mm
17:57 3.3 °F /  -15.9 °C -2.0 °F /  -18.9 °C 1013.1 in /  34303.6 hPa North 6.4 mph /  10.3 km/h 20.9 mph /  33.6 km/h 68 % 0.0 in /  0 mm
18:03 3.3 °F /  -15.9 °C -1.8 °F /  -18.8 °C 1013.4 in /  34313.7 hPa NNE 13.0 mph /  20.9 km/h 19.3 mph /  31.1 km/h 69 % 0.0 in /  0 mm
18:09 3.1 °F /  -16.1 °C -2.0 °F /  -18.9 °C 1013.4 in /  34313.7 hPa NNE 7.9 mph /  12.7 km/h 14.5 mph /  23.3 km/h 69 % 0.0 in /  0 mm
18:15 3.0 °F /  -16.1 °C -1.9 °F /  -18.8 °C 1013.4 in /  34313.7 hPa North 4.7 mph /  7.6 km/h 9.7 mph /  15.6 km/h 70 % 0.0 in /  0 mm
18:21 2.8 °F /  -16.2 °C -2.1 °F /  -18.9 °C 1013.4 in /  34313.7 hPa NE 7.9 mph /  12.7 km/h 12.9 mph /  20.8 km/h 70 % 0.0 in /  0 mm
18:27 2.7 °F /  -16.3 °C -2.2 °F /  -19 °C 1013.4 in /  34313.7 hPa North 6.4 mph /  10.3 km/h 11.3 mph /  18.2 km/h 70 % 0.0 in /  0 mm
18:33 2.6 °F /  -16.3 °C -2.1 °F /  -18.9 °C 1013.4 in /  34313.7 hPa NE 1.4 mph /  2.3 km/h 9.7 mph /  15.6 km/h 71 % 0.0 in /  0 mm
18:39 2.4 °F /  -16.4 °C -2.1 °F /  -18.9 °C 1013.4 in /  34313.7 hPa NW 1.4 mph /  2.3 km/h 6.4 mph /  10.3 km/h 72 % 0.0 in /  0 mm
18:45 2.3 °F /  -16.5 °C -2.0 °F /  -18.9 °C 1013.4 in /  34313.7 hPa NNW 3.2 mph /  5.1 km/h 8.0 mph /  12.9 km/h 73 % 0.0 in /  0 mm
18:51 2.2 °F /  -16.6 °C -2.1 °F /  -18.9 °C 1013.4 in /  34313.7 hPa North 4.7 mph /  7.6 km/h 4.8 mph /  7.7 km/h 73 % 0.0 in /  0 mm
18:57 2.0 °F /  -16.7 °C -2.3 °F /  -19.1 °C 1013.4 in /  34313.7 hPa NNE 3.2 mph /  5.1 km/h 6.4 mph /  10.3 km/h 73 % 0.0 in /  0 mm
19:03 1.8 °F /  -16.8 °C -2.3 °F /  -19.1 °C 1013.8 in /  34327.3 hPa North 1.4 mph /  2.3 km/h 8.0 mph /  12.9 km/h 74 % 0.0 in /  0 mm
19:09 1.7 °F /  -16.8 °C -2.4 °F /  -19.1 °C 1013.8 in /  34327.3 hPa North 4.7 mph /  7.6 km/h 4.8 mph /  7.7 km/h 74 % 0.0 in /  0 mm
19:15 1.5 °F /  -16.9 °C -2.4 °F /  -19.1 °C 1013.8 in /  34327.3 hPa NE 1.4 mph /  2.3 km/h 8.0 mph /  12.9 km/h 75 % 0.0 in /  0 mm
19:21 1.4 °F /  -17 °C -2.5 °F /  -19.2 °C 1013.8 in /  34327.3 hPa NNE 3.2 mph /  5.1 km/h 6.4 mph /  10.3 km/h 75 % 0.0 in /  0 mm
19:27 1.3 °F /  -17.1 °C -2.5 °F /  -19.2 °C 1013.8 in /  34327.3 hPa Calm   3.2 mph /  5.1 km/h 76 % 0.0 in /  0 mm
19:33 1.2 °F /  -17.1 °C -2.6 °F /  -19.2 °C 1013.8 in /  34327.3 hPa North 4.7 mph /  7.6 km/h 4.8 mph /  7.7 km/h 76 % 0.0 in /  0 mm
19:39 1.2 °F /  -17.1 °C -2.6 °F /  -19.2 °C 1013.8 in /  34327.3 hPa Calm   3.2 mph /  5.1 km/h 76 % 0.0 in /  0 mm
19:45 1.0 °F /  -17.2 °C -2.6 °F /  -19.2 °C 1013.8 in /  34327.3 hPa NE 4.7 mph /  7.6 km/h 4.8 mph /  7.7 km/h 77 % 0.0 in /  0 mm
19:51 1.0 °F /  -17.2 °C -2.6 °F /  -19.2 °C 1013.8 in /  34327.3 hPa NNE 3.2 mph /  5.1 km/h 8.0 mph /  12.9 km/h 77 % 0.0 in /  0 mm
19:57 1.1 °F /  -17.2 °C -2.7 °F /  -19.3 °C 1013.8 in /  34327.3 hPa NNW 6.4 mph /  10.3 km/h 8.0 mph /  12.9 km/h 76 % 0.0 in /  0 mm
20:03 1.1 °F /  -17.2 °C -2.7 °F /  -19.3 °C 1013.8 in /  34327.3 hPa North 6.4 mph /  10.3 km/h 6.4 mph /  10.3 km/h 76 % 0.0 in /  0 mm
20:09 1.2 °F /  -17.1 °C -2.6 °F /  -19.2 °C 1013.8 in /  34327.3 hPa NNE 4.7 mph /  7.6 km/h 9.7 mph /  15.6 km/h 76 % 0.0 in /  0 mm
20:15 1.1 °F /  -17.2 °C -2.7 °F /  -19.3 °C 1013.8 in /  34327.3 hPa NE 6.4 mph /  10.3 km/h 9.7 mph /  15.6 km/h 76 % 0.0 in /  0 mm
20:21 1.2 °F /  -17.1 °C -2.6 °F /  -19.2 °C 1013.8 in /  34327.3 hPa ENE 1.4 mph /  2.3 km/h 8.0 mph /  12.9 km/h 76 % 0.0 in /  0 mm
20:27 1.1 °F /  -17.2 °C -2.7 °F /  -19.3 °C 1013.8 in /  34327.3 hPa NNE 3.2 mph /  5.1 km/h 6.4 mph /  10.3 km/h 76 % 0.0 in /  0 mm
20:33 1.2 °F /  -17.1 °C -2.6 °F /  -19.2 °C 1013.8 in /  34327.3 hPa NNE 9.7 mph /  15.6 km/h 9.7 mph /  15.6 km/h 76 % 0.0 in /  0 mm
20:39 1.2 °F /  -17.1 °C -2.6 °F /  -19.2 °C 1013.8 in /  34327.3 hPa North 3.2 mph /  5.1 km/h 14.5 mph /  23.3 km/h 76 % 0.0 in /  0 mm
20:45 1.3 °F /  -17.1 °C -2.5 °F /  -19.2 °C 1013.8 in /  34327.3 hPa NE 7.9 mph /  12.7 km/h 14.5 mph /  23.3 km/h 76 % 0.0 in /  0 mm
20:51 1.3 °F /  -17.1 °C -2.6 °F /  -19.2 °C 1013.8 in /  34327.3 hPa NE 9.7 mph /  15.6 km/h 9.7 mph /  15.6 km/h 75 % 0.0 in /  0 mm
20:57 1.4 °F /  -17 °C -2.5 °F /  -19.2 °C 1013.8 in /  34327.3 hPa NNE 9.7 mph /  15.6 km/h 9.7 mph /  15.6 km/h 75 % 0.0 in /  0 mm
21:03 1.3 °F /  -17.1 °C -2.6 °F /  -19.2 °C 1013.8 in /  34327.3 hPa NNE 7.9 mph /  12.7 km/h 11.3 mph /  18.2 km/h 75 % 0.0 in /  0 mm
21:09 1.3 °F /  -17.1 °C -2.5 °F /  -19.2 °C 1013.8 in /  34327.3 hPa North 1.4 mph /  2.3 km/h 11.3 mph /  18.2 km/h 76 % 0.0 in /  0 mm
21:15 1.3 °F /  -17.1 °C -2.6 °F /  -19.2 °C 1014.1 in /  34337.4 hPa NNE 1.4 mph /  2.3 km/h 11.3 mph /  18.2 km/h 75 % 0.0 in /  0 mm
21:21 1.4 °F /  -17 °C -2.5 °F /  -19.2 °C 1014.1 in /  34337.4 hPa NNE 6.4 mph /  10.3 km/h 12.9 mph /  20.8 km/h 75 % 0.0 in /  0 mm
21:27 1.6 °F /  -16.9 °C -2.5 °F /  -19.2 °C 1013.8 in /  34327.3 hPa NNE 14.3 mph /  23 km/h 14.5 mph /  23.3 km/h 74 % 0.0 in /  0 mm
21:33 1.6 °F /  -16.9 °C -2.7 °F /  -19.3 °C 1013.8 in /  34327.3 hPa NE 9.7 mph /  15.6 km/h 12.9 mph /  20.8 km/h 73 % 0.0 in /  0 mm
21:39 1.7 °F /  -16.8 °C -2.8 °F /  -19.3 °C 1014.1 in /  34337.4 hPa NNE 13.0 mph /  20.9 km/h 17.7 mph /  28.5 km/h 72 % 0.0 in /  0 mm
21:45 1.6 °F /  -16.9 °C -3.1 °F /  -19.5 °C 1014.1 in /  34337.4 hPa NE 13.0 mph /  20.9 km/h 19.3 mph /  31.1 km/h 71 % 0.0 in /  0 mm
21:51 1.5 °F /  -16.9 °C -3.0 °F /  -19.4 °C 1014.1 in /  34337.4 hPa NE 13.0 mph /  20.9 km/h 14.5 mph /  23.3 km/h 72 % 0.0 in /  0 mm
21:57 1.5 °F /  -16.9 °C -2.8 °F /  -19.3 °C 1014.1 in /  34337.4 hPa ENE 4.7 mph /  7.6 km/h 19.3 mph /  31.1 km/h 73 % 0.0 in /  0 mm
22:05 1.4 °F /  -17 °C -2.9 °F /  -19.4 °C 1014.1 in /  34337.4 hPa ENE 11.1 mph /  17.9 km/h 17.7 mph /  28.5 km/h 73 % 0.0 in /  0 mm
22:11 1.2 °F /  -17.1 °C -3.3 °F /  -19.6 °C 1014.1 in /  34337.4 hPa NE 14.3 mph /  23 km/h 20.9 mph /  33.6 km/h 72 % 0.0 in /  0 mm
22:17 1.1 °F /  -17.2 °C -3.4 °F /  -19.7 °C 1014.1 in /  34337.4 hPa ENE 9.7 mph /  15.6 km/h 16.1 mph /  25.9 km/h 72 % 0.0 in /  0 mm
22:23 1.0 °F /  -17.2 °C -3.7 °F /  -19.8 °C 1014.1 in /  34337.4 hPa ENE 17.7 mph /  28.5 km/h 17.7 mph /  28.5 km/h 71 % 0.0 in /  0 mm
22:29 0.9 °F /  -17.3 °C -4.0 °F /  -20 °C 1014.1 in /  34337.4 hPa NE 9.7 mph /  15.6 km/h 17.7 mph /  28.5 km/h 70 % 0.0 in /  0 mm
22:33 0.9 °F /  -17.3 °C -4.0 °F /  -20 °C 1014.1 in /  34337.4 hPa NE 13.0 mph /  20.9 km/h 17.7 mph /  28.5 km/h 70 % 0.0 in /  0 mm
22:39 0.8 °F /  -17.3 °C -4.0 °F /  -20 °C 1014.1 in /  34337.4 hPa NE 17.7 mph /  28.5 km/h 17.7 mph /  28.5 km/h 70 % 0.0 in /  0 mm
22:45 0.8 °F /  -17.3 °C -4.4 °F /  -20.2 °C 1014.1 in /  34337.4 hPa NE 7.9 mph /  12.7 km/h 16.1 mph /  25.9 km/h 68 % 0.0 in /  0 mm
22:49 0.8 °F /  -17.3 °C -4.6 °F /  -20.3 °C 1014.4 in /  34347.6 hPa NE 6.4 mph /  10.3 km/h 19.3 mph /  31.1 km/h 67 % 0.0 in /  0 mm
22:55 0.7 °F /  -17.4 °C -4.7 °F /  -20.4 °C 1014.4 in /  34347.6 hPa NE 11.1 mph /  17.9 km/h 16.1 mph /  25.9 km/h 67 % 0.0 in /  0 mm
23:01 0.6 °F /  -17.4 °C -4.8 °F /  -20.4 °C 1014.4 in /  34347.6 hPa ENE 7.9 mph /  12.7 km/h 12.9 mph /  20.8 km/h 67 % 0.0 in /  0 mm
23:07 0.6 °F /  -17.4 °C -4.8 °F /  -20.4 °C 1014.4 in /  34347.6 hPa NE 9.7 mph /  15.6 km/h 12.9 mph /  20.8 km/h 67 % 0.0 in /  0 mm
23:13 0.5 °F /  -17.5 °C -4.9 °F /  -20.5 °C 1014.4 in /  34347.6 hPa NE 13.0 mph /  20.9 km/h 14.5 mph /  23.3 km/h 67 % 0.0 in /  0 mm
23:19 0.5 °F /  -17.5 °C -5.1 °F /  -20.6 °C 1014.4 in /  34347.6 hPa NE 4.7 mph /  7.6 km/h 16.1 mph /  25.9 km/h 66 % 0.0 in /  0 mm
23:25 0.4 °F /  -17.6 °C -5.2 °F /  -20.7 °C 1014.4 in /  34347.6 hPa NE 11.1 mph /  17.9 km/h 16.1 mph /  25.9 km/h 66 % 0.0 in /  0 mm
23:31 0.4 °F /  -17.6 °C -5.4 °F /  -20.8 °C 1014.4 in /  34347.6 hPa NE 6.4 mph /  10.3 km/h 16.1 mph /  25.9 km/h 65 % 0.0 in /  0 mm
23:37 0.4 °F /  -17.6 °C -5.4 °F /  -20.8 °C 1014.4 in /  34347.6 hPa ENE 7.9 mph /  12.7 km/h 14.5 mph /  23.3 km/h 65 % 0.0 in /  0 mm
23:43 0.3 °F /  -17.6 °C -5.5 °F /  -20.8 °C 1014.4 in /  34347.6 hPa NNE 11.1 mph /  17.9 km/h 17.7 mph /  28.5 km/h 65 % 0.0 in /  0 mm
23:49 0.3 °F /  -17.6 °C -5.7 °F /  -20.9 °C 1014.4 in /  34347.6 hPa NE 13.0 mph /  20.9 km/h 20.9 mph /  33.6 km/h 64 % 0.0 in /  0 mm
23:55 0.3 °F /  -17.6 °C -5.5 °F /  -20.8 °C 1014.4 in /  34347.6 hPa NE 16.3 mph /  26.2 km/h 17.7 mph /  28.5 km/h 65 % 0.0 in /  0 mm
Meteo18
Compliments of Weather Underground - 4 mb

Script developed by  Jim McMurry - jmcmurry@mwt.net Adapted for the template by  Wim van der Kuil - Leuven-Template.eu

You find our weather info also at:

European Weather Network

Weather Underground

Equipment we use:

Weather-station
Davis Vue

Weather-program
Meteobridge

Weather-server
Raspberry PI 2 B+

Provider
1 and 1

Davis Vue

Meteobridge

Raspberry PI 2 B+

1 and 1